Time;durP1;ratioP1;P1;durP2;ratioP2;P2;SDS_P1;SDS_P2;PMS_P1;PMS_P2;Temp;Humidity;BMP_temperature;BMP_pressure;BME280_temperature;BME280_humidity;BME280_pressure;Samples;Min_cycle;Max_cycle;Signal;HPM_P1;HPM_P2
2022/03/19 00:00:15;;;;;;;6.03;2.75;;;4.60;99.90;;;;;;6169718;23;20020;-80
2022/03/19 00:02:41;;;;;;;13.00;3.00;;;4.50;99.90;;;;;;6169324;23;20024;-80
2022/03/19 00:05:08;;;;;;;10.40;3.30;;;4.50;99.90;;;;;;6169470;23;20021;-80
2022/03/19 00:07:35;;;;;;;8.07;2.65;;;4.40;99.90;;;;;;6169480;23;20040;-81
2022/03/19 00:10:03;;;;;;;11.00;2.80;;;4.30;99.90;;;;;;6141695;23;20320;-82
2022/03/19 00:12:29;;;;;;;40.63;8.75;;;4.40;99.90;;;;;;6165841;23;20021;-82
2022/03/19 00:14:54;;;;;;;11.07;3.15;;;4.30;99.90;;;;;;6166114;23;20016;-81
2022/03/19 00:17:20;;;;;;;21.17;5.43;;;4.30;99.90;;;;;;6165125;23;20017;-81
2022/03/19 00:19:45;;;;;;;52.55;12.98;;;4.30;99.90;;;;;;6165284;23;20020;-81
2022/03/19 00:22:11;;;;;;;39.90;10.30;;;4.30;99.90;;;;;;6165948;23;20332;-82
2022/03/19 00:24:37;;;;;;;15.18;4.25;;;4.30;99.90;;;;;;6165302;23;20055;-81
2022/03/19 00:27:03;;;;;;;11.20;2.92;;;4.20;99.90;;;;;;6165833;23;20800;-81
2022/03/19 00:29:28;;;;;;;13.40;3.58;;;4.20;99.90;;;;;;6166072;23;20013;-82
2022/03/19 00:31:54;;;;;;;11.48;3.20;;;4.10;99.90;;;;;;6165878;23;20047;-82
2022/03/19 00:34:20;;;;;;;15.88;3.33;;;4.10;99.90;;;;;;6141209;23;20031;-82
2022/03/19 00:36:45;;;;;;;10.73;2.67;;;4.10;99.90;;;;;;6165815;23;20017;-82
2022/03/19 00:39:11;;;;;;;12.27;3.00;;;4.10;99.90;;;;;;6166590;23;20024;-82
2022/03/19 00:41:36;;;;;;;9.10;3.13;;;4.00;99.90;;;;;;6166491;23;20068;-82
2022/03/19 00:44:02;;;;;;;12.00;3.03;;;4.00;99.90;;;;;;6164233;23;20341;-81
2022/03/19 00:46:27;;;;;;;14.50;3.42;;;4.00;99.90;;;;;;6189353;23;20021;-81
2022/03/19 00:48:53;;;;;;;10.98;2.83;;;4.00;99.90;;;;;;6162368;23;20626;-81
2022/03/19 00:51:18;;;;;;;10.18;3.35;;;3.90;99.90;;;;;;6162023;23;20013;-81
2022/03/19 00:53:44;;;;;;;11.13;2.35;;;3.90;99.90;;;;;;6138848;23;20068;-81
2022/03/19 00:56:10;;;;;;;7.20;2.30;;;3.90;99.90;;;;;;6162284;23;20040;-81
2022/03/19 00:58:35;;;;;;;9.18;2.55;;;3.90;99.90;;;;;;6162891;23;20021;-81
2022/03/19 01:01:01;;;;;;;11.88;2.53;;;3.80;99.90;;;;;;6188432;23;20048;-81
2022/03/19 01:03:26;;;;;;;10.30;2.60;;;3.90;99.90;;;;;;6162965;23;20068;-81
2022/03/19 01:05:52;;;;;;;10.00;2.85;;;3.80;99.90;;;;;;6162952;23;20017;-81
2022/03/19 01:08:18;;;;;;;9.00;2.10;;;3.80;99.90;;;;;;6163654;23;20119;-81
2022/03/19 01:10:43;;;;;;;12.30;2.95;;;3.80;99.90;;;;;;6162640;23;20104;-81
2022/03/19 01:13:09;;;;;;;9.77;2.78;;;3.80;99.90;;;;;;6162814;23;20458;-81
2022/03/19 01:15:35;;;;;;;7.32;3.47;;;3.70;99.90;;;;;;6162509;23;20131;-81
2022/03/19 01:18:01;;;;;;;11.75;2.55;;;3.70;99.90;;;;;;6162947;23;20024;-81
2022/03/19 01:20:27;;;;;;;13.50;3.33;;;3.80;99.90;;;;;;6137618;23;20019;-81
2022/03/19 01:22:52;;;;;;;10.15;2.88;;;3.80;99.90;;;;;;6162742;23;20482;-81
2022/03/19 01:25:19;;;;;;;12.18;2.50;;;3.80;99.90;;;;;;6162890;23;20013;-81
2022/03/19 01:27:47;;;;;;;15.02;2.55;;;3.70;99.90;;;;;;6189169;23;20029;-81
2022/03/19 01:30:16;;;;;;;9.80;2.55;;;3.70;99.90;;;;;;6162435;23;20058;-81
2022/03/19 01:32:41;;;;;;;12.48;2.72;;;3.70;99.90;;;;;;6162303;23;20366;-81
2022/03/19 01:35:09;;;;;;;11.70;3.13;;;3.70;99.90;;;;;;6162519;23;20060;-81
2022/03/19 01:37:34;;;;;;;8.77;2.45;;;3.70;99.90;;;;;;6162794;23;20017;-81
2022/03/19 01:40:00;;;;;;;11.50;2.60;;;3.60;99.90;;;;;;6162280;23;20013;-81
2022/03/19 01:42:31;;;;;;;12.25;3.90;;;3.60;99.90;;;;;;6162215;23;20025;-81
2022/03/19 01:44:58;;;;;;;13.63;3.00;;;3.60;99.90;;;;;;6162485;23;20009;-81
2022/03/19 01:47:25;;;;;;;9.57;2.10;;;3.60;99.90;;;;;;6162723;23;20005;-81
2022/03/19 01:49:50;;;;;;;15.48;2.60;;;3.60;99.90;;;;;;6162171;23;20039;-81
2022/03/19 01:52:16;;;;;;;9.07;1.95;;;3.50;99.90;;;;;;6163119;23;20009;-81
2022/03/19 01:54:46;;;;;;;12.30;2.55;;;3.50;99.90;;;;;;6161918;23;20465;-81
2022/03/19 01:57:15;;;;;;;12.38;2.95;;;3.50;99.90;;;;;;6162139;23;20068;-81
2022/03/19 01:59:42;;;;;;;13.68;2.75;;;3.50;99.90;;;;;;6162008;23;20020;-81
2022/03/19 02:02:08;;;;;;;8.95;2.90;;;3.50;99.90;;;;;;6161848;23;20012;-81
2022/03/19 02:04:35;;;;;;;18.50;3.25;;;3.50;99.90;;;;;;6163156;23;20021;-81
2022/03/19 02:07:01;;;;;;;13.55;3.20;;;3.50;99.90;;;;;;6161995;23;20009;-81
2022/03/19 02:09:28;;;;;;;12.48;2.67;;;3.40;99.90;;;;;;6161902;23;20044;-81
2022/03/19 02:11:54;;;;;;;6.25;2.40;;;3.40;99.90;;;;;;6161867;23;20009;-81
2022/03/19 02:14:20;;;;;;;9.50;2.38;;;3.40;99.90;;;;;;6162093;23;20009;-81
2022/03/19 02:16:46;;;;;;;9.82;2.78;;;3.40;99.90;;;;;;6161912;23;20690;-81
2022/03/19 02:19:12;;;;;;;13.55;2.80;;;3.30;99.90;;;;;;6162246;23;20028;-81
2022/03/19 02:21:46;;;;;;;11.20;2.50;;;3.20;99.90;;;;;;6187963;23;20009;-81
2022/03/19 02:26:57;;;;;;;11.38;3.28;;;3.10;99.90;;;;;;6161888;23;20028;-81
2022/03/19 02:29:23;;;;;;;9.43;2.17;;;3.10;99.90;;;;;;6162495;23;20009;-81
2022/03/19 02:31:53;;;;;;;16.80;3.72;;;3.10;99.90;;;;;;6162424;23;20469;-81
2022/03/19 02:34:19;;;;;;;11.02;2.90;;;3.10;99.90;;;;;;6162857;23;20151;-80
2022/03/19 02:36:45;;;;;;;11.18;2.70;;;3.00;99.90;;;;;;6164149;23;20394;-81
2022/03/19 02:39:25;;;;;;;11.05;2.75;;;3.00;99.90;;;;;;6164353;23;20434;-80
2022/03/19 02:41:52;;;;;;;11.60;3.05;;;3.00;99.90;;;;;;6164230;23;20021;-81
2022/03/19 02:44:19;;;;;;;13.95;3.53;;;2.90;99.90;;;;;;6163924;23;20446;-80
2022/03/19 02:46:55;;;;;;;8.10;2.83;;;2.90;99.90;;;;;;6164039;23;20049;-81
2022/03/19 02:49:22;;;;;;;14.50;3.40;;;2.80;99.90;;;;;;6139880;23;20355;-81
2022/03/19 02:51:50;;;;;;;15.20;3.03;;;2.90;99.90;;;;;;6163890;23;20013;-80
2022/03/19 02:54:18;;;;;;;11.10;3.70;;;2.90;99.90;;;;;;6139372;23;20450;-80
2022/03/19 02:56:45;;;;;;;10.93;2.92;;;2.80;99.90;;;;;;6163459;23;20013;-80
2022/03/19 02:59:22;;;;;;;13.10;3.03;;;2.80;99.90;;;;;;6164114;23;20614;-80
2022/03/19 03:01:56;;;;;;;12.25;2.83;;;2.90;99.90;;;;;;6166203;23;20040;-80
2022/03/19 03:04:23;;;;;;;8.95;3.03;;;2.90;99.90;;;;;;6167933;23;20017;-80
2022/03/19 03:06:51;;;;;;;7.43;2.30;;;2.90;99.90;;;;;;6169227;23;20017;-80
2022/03/19 03:09:22;;;;;;;8.55;2.65;;;3.00;99.90;;;;;;6167540;23;20009;-81
2022/03/19 03:11:48;;;;;;;12.10;3.57;;;2.90;99.90;;;;;;6163763;23;20027;-81
2022/03/19 03:14:14;;;;;;;8.43;2.90;;;2.90;99.90;;;;;;6163497;23;20446;-81
2022/03/19 03:16:41;;;;;;;10.90;3.13;;;3.00;99.90;;;;;;6166557;23;20024;-80
2022/03/19 03:19:09;;;;;;;12.68;3.13;;;2.90;99.90;;;;;;6167924;23;20037;-80
2022/03/19 03:21:36;;;;;;;8.23;2.85;;;2.90;99.90;;;;;;6167161;23;20023;-80
2022/03/19 03:24:03;;;;;;;16.35;3.15;;;2.90;99.90;;;;;;6168537;23;20100;-80
2022/03/19 03:26:30;;;;;;;14.00;3.10;;;2.90;99.90;;;;;;6163519;23;20017;-80
2022/03/19 03:28:56;;;;;;;12.20;3.85;;;2.90;99.90;;;;;;6162706;23;20016;-80
2022/03/19 03:31:22;;;;;;;10.30;3.10;;;2.90;99.90;;;;;;6162497;23;20036;-80
2022/03/19 03:33:48;;;;;;;8.73;2.95;;;2.90;99.90;;;;;;6139600;23;20024;-81
2022/03/19 03:36:14;;;;;;;13.07;3.30;;;2.90;99.90;;;;;;6163354;23;20108;-80
2022/03/19 03:38:40;;;;;;;12.43;3.50;;;2.90;99.90;;;;;;6163493;23;20024;-80
2022/03/19 03:41:05;;;;;;;12.35;3.45;;;2.90;99.90;;;;;;6163698;23;20118;-80
2022/03/19 03:43:31;;;;;;;11.20;4.20;;;3.00;99.90;;;;;;6139089;23;20013;-81
2022/03/19 03:45:57;;;;;;;10.95;3.78;;;3.00;99.90;;;;;;6163812;23;20100;-80
2022/03/19 03:48:22;;;;;;;11.35;2.90;;;3.00;99.90;;;;;;6163189;23;20068;-81
2022/03/19 03:50:52;;;;;;;15.15;3.13;;;3.00;99.90;;;;;;6162848;23;20450;-81
2022/03/19 03:53:18;;;;;;;17.50;3.60;;;2.90;99.90;;;;;;6163846;23;20067;-80
2022/03/19 03:55:44;;;;;;;12.15;3.35;;;3.00;99.90;;;;;;6161795;23;20013;-80
2022/03/19 03:58:11;;;;;;;6.03;2.85;;;3.00;99.90;;;;;;6134027;23;20099;-80
2022/03/19 04:00:36;;;;;;;12.95;3.33;;;3.00;99.90;;;;;;6133255;23;20060;-80
2022/03/19 04:03:03;;;;;;;8.15;3.13;;;3.00;99.90;;;;;;6110103;23;20017;-80
2022/03/19 04:05:29;;;;;;;11.77;3.20;;;3.10;99.90;;;;;;6132727;23;20023;-80
2022/03/19 04:07:55;;;;;;;13.55;3.63;;;3.00;99.90;;;;;;6133744;23;20033;-81
2022/03/19 04:10:21;;;;;;;17.17;3.80;;;3.10;99.90;;;;;;6133491;23;20014;-80
2022/03/19 04:12:46;;;;;;;15.65;4.38;;;3.10;99.90;;;;;;6134504;23;20089;-80
2022/03/19 04:15:12;;;;;;;14.93;3.22;;;3.10;99.90;;;;;;6133510;23;20096;-80
2022/03/19 04:17:38;;;;;;;13.00;3.45;;;3.00;99.90;;;;;;6133335;23;20013;-80
2022/03/19 04:20:05;;;;;;;11.43;3.63;;;3.00;99.90;;;;;;6133333;23;20018;-80
2022/03/19 04:22:41;;;;;;;11.05;3.08;;;3.00;99.90;;;;;;6133746;23;20470;-80
2022/03/19 04:25:19;;;;;;;11.32;4.82;;;3.00;99.90;;;;;;6134486;23;20009;-81
2022/03/19 04:27:47;;;;;;;12.98;3.22;;;3.10;99.90;;;;;;6134024;23;20036;-80
2022/03/19 04:30:14;;;;;;;12.10;3.95;;;3.00;99.90;;;;;;6133095;23;20018;-81
2022/03/19 04:32:50;;;;;;;8.15;3.55;;;3.00;99.90;;;;;;6133546;23;20017;-81
2022/03/19 04:38:04;;;;;;;19.85;3.17;;;3.00;99.90;;;;;;6133568;23;20024;-81
2022/03/19 04:40:32;;;;;;;11.32;3.25;;;3.10;99.90;;;;;;6133614;23;20045;-80
2022/03/19 04:42:58;;;;;;;14.57;4.53;;;3.10;99.90;;;;;;6133467;23;20076;-80
2022/03/19 04:45:24;;;;;;;11.23;3.65;;;3.10;99.90;;;;;;6132755;23;20064;-80
2022/03/19 04:47:50;;;;;;;13.68;3.30;;;3.10;99.90;;;;;;6133514;23;20013;-80
2022/03/19 04:50:15;;;;;;;19.35;3.80;;;3.10;99.90;;;;;;6132432;23;20044;-80
2022/03/19 04:52:42;;;;;;;11.93;4.80;;;3.10;99.90;;;;;;6133225;23;20013;-80
2022/03/19 04:55:10;;;;;;;10.82;3.60;;;3.00;99.90;;;;;;6133330;23;20013;-81
2022/03/19 04:57:36;;;;;;;16.38;3.83;;;3.00;99.90;;;;;;6157049;23;20022;-80
2022/03/19 05:00:04;;;;;;;10.30;3.40;;;3.00;99.90;;;;;;6162562;23;20064;-81
2022/03/19 05:02:30;;;;;;;14.15;3.95;;;3.00;99.90;;;;;;6163687;23;20009;-81
2022/03/19 05:04:55;;;;;;;15.35;4.25;;;3.00;99.90;;;;;;6162933;23;20406;-81
2022/03/19 05:07:22;;;;;;;8.95;3.13;;;2.90;99.90;;;;;;6162386;23;20449;-80
2022/03/19 05:12:35;;;;;;;18.10;4.30;;;2.90;99.90;;;;;;6162371;23;20024;-80
2022/03/19 05:15:01;;;;;;;13.02;3.08;;;2.90;99.90;;;;;;6162593;23;20315;-80
2022/03/19 05:17:26;;;;;;;15.27;4.22;;;2.90;99.90;;;;;;6162592;23;20071;-80
2022/03/19 05:19:52;;;;;;;11.68;3.55;;;2.90;99.90;;;;;;6161879;23;20021;-80
2022/03/19 05:22:18;;;;;;;10.93;3.05;;;2.80;99.90;;;;;;6162942;23;20078;-80
2022/03/19 05:24:44;;;;;;;16.60;4.53;;;2.80;99.90;;;;;;6162702;23;20027;-81
2022/03/19 05:27:10;;;;;;;10.43;3.63;;;2.80;99.90;;;;;;6162396;23;20024;-81
2022/03/19 05:29:36;;;;;;;11.18;3.78;;;2.80;99.90;;;;;;6162602;23;20059;-81
2022/03/19 05:32:02;;;;;;;11.13;4.05;;;2.80;99.90;;;;;;6163065;23;20013;-81
2022/03/19 05:34:31;;;;;;;13.02;4.68;;;2.90;99.90;;;;;;6162716;23;20017;-80
2022/03/19 05:37:01;;;;;;;12.60;4.30;;;2.90;99.90;;;;;;6162712;23;20071;-81
2022/03/19 05:39:28;;;;;;;6.93;3.40;;;3.00;99.90;;;;;;6162235;23;20028;-80
2022/03/19 05:41:54;;;;;;;10.77;3.22;;;3.00;99.90;;;;;;6161969;23;20454;-80
2022/03/19 05:44:20;;;;;;;13.60;3.97;;;3.00;99.90;;;;;;6137686;23;20054;-81
2022/03/19 05:46:46;;;;;;;13.98;3.65;;;3.00;99.90;;;;;;6162067;23;20014;-80
2022/03/19 05:49:11;;;;;;;6.63;2.85;;;3.00;99.90;;;;;;6162815;23;20385;-81
2022/03/19 05:51:37;;;;;;;8.65;3.50;;;3.00;99.90;;;;;;6162042;23;20009;-80
2022/03/19 05:54:03;;;;;;;11.48;3.35;;;3.00;99.90;;;;;;6137513;23;20088;-81
2022/03/19 05:56:29;;;;;;;10.77;3.33;;;3.10;99.90;;;;;;6137934;23;20098;-80
2022/03/19 05:58:55;;;;;;;17.05;4.00;;;2.90;99.90;;;;;;6163098;23;20024;-81
2022/03/19 06:01:26;;;;;;;20.27;4.32;;;2.90;99.90;;;;;;6162148;23;20017;-80
2022/03/19 06:03:52;;;;;;;10.30;3.28;;;3.00;99.90;;;;;;6162324;23;20017;-80
2022/03/19 06:06:18;;;;;;;9.20;2.97;;;3.00;99.90;;;;;;6162282;23;20017;-80
2022/03/19 06:08:43;;;;;;;7.40;2.67;;;3.00;99.90;;;;;;6162208;23;20606;-80
2022/03/19 06:11:09;;;;;;;7.82;3.45;;;3.00;99.90;;;;;;6164103;23;20025;-80
2022/03/19 06:13:34;;;;;;;9.52;3.22;;;3.00;99.90;;;;;;6164348;23;20043;-80
2022/03/19 06:16:00;;;;;;;15.15;3.65;;;3.10;99.90;;;;;;6140290;23;20048;-80
2022/03/19 06:18:26;;;;;;;9.05;3.95;;;3.10;99.90;;;;;;6164369;23;20017;-81
2022/03/19 06:20:51;;;;;;;10.73;3.15;;;3.20;99.90;;;;;;6164151;23;20084;-80
2022/03/19 06:23:17;;;;;;;10.88;2.85;;;3.20;99.90;;;;;;6165248;23;20020;-81
2022/03/19 06:25:43;;;;;;;16.77;3.08;;;3.20;99.90;;;;;;6163696;23;20040;-80
2022/03/19 06:28:08;;;;;;;8.98;2.75;;;3.30;99.90;;;;;;6164369;23;20092;-80
2022/03/19 06:30:37;;;;;;;4.80;2.50;;;3.40;99.90;;;;;;6163841;23;20009;-80
2022/03/19 06:33:04;;;;;;;8.73;2.80;;;3.40;99.90;;;;;;6164374;23;20024;-80
2022/03/19 06:38:15;;;;;;;8.27;2.60;;;3.70;99.90;;;;;;6163462;23;20091;-81
2022/03/19 06:40:40;;;;;;;10.32;3.83;;;3.70;99.90;;;;;;6163608;23;20447;-81
2022/03/19 06:43:06;;;;;;;10.27;3.22;;;3.80;99.90;;;;;;6164062;23;20726;-81
2022/03/19 06:45:31;;;;;;;12.30;3.15;;;4.00;99.90;;;;;;6164283;23;20481;-81
2022/03/19 06:47:57;;;;;;;10.23;3.22;;;4.00;99.90;;;;;;6163873;23;20059;-81
2022/03/19 06:50:22;;;;;;;13.40;4.28;;;4.20;99.90;;;;;;6163226;23;20017;-81
2022/03/19 06:52:48;;;;;;;9.63;3.15;;;4.40;99.90;;;;;;6139153;23;20064;-81
2022/03/19 06:55:14;;;;;;;9.43;3.80;;;4.50;99.90;;;;;;6164439;23;20005;-81
2022/03/19 06:57:39;;;;;;;8.90;2.88;;;4.60;99.90;;;;;;6171988;23;20021;-80
2022/03/19 07:00:05;;;;;;;12.63;3.10;;;4.70;99.90;;;;;;6174312;23;20013;-80
2022/03/19 07:02:31;;;;;;;8.18;2.40;;;4.70;99.90;;;;;;6170360;23;20430;-79
2022/03/19 07:04:57;;;;;;;12.52;3.20;;;4.90;99.90;;;;;;6167444;23;20060;-80
2022/03/19 07:07:22;;;;;;;10.85;3.00;;;5.20;99.90;;;;;;6170513;23;20028;-79
2022/03/19 07:09:49;;;;;;;7.95;2.67;;;5.30;99.90;;;;;;6145271;23;20013;-80
2022/03/19 07:12:15;;;;;;;8.27;3.05;;;5.40;99.90;;;;;;6146420;23;20020;-80
2022/03/19 07:14:40;;;;;;;12.38;3.25;;;5.50;99.90;;;;;;6168003;23;20013;-82
2022/03/19 07:17:07;;;;;;;13.13;3.17;;;5.80;99.90;;;;;;6169006;23;20140;-82
2022/03/19 07:19:33;;;;;;;9.73;3.45;;;6.10;99.90;;;;;;6167804;23;20009;-83
2022/03/19 07:21:58;;;;;;;13.73;4.20;;;6.40;99.90;;;;;;6142739;23;20362;-83
2022/03/19 07:24:24;;;;;;;10.50;3.50;;;6.70;99.90;;;;;;6168052;23;20020;-83
2022/03/19 07:26:50;;;;;;;18.05;5.85;;;7.20;99.90;;;;;;6166064;23;20033;-83
2022/03/19 07:29:18;;;;;;;21.67;7.32;;;7.70;99.90;;;;;;6166029;23;20083;-82
2022/03/19 07:31:44;;;;;;;17.80;3.90;;;8.20;99.90;;;;;;6164815;23;20009;-83
2022/03/19 07:34:10;;;;;;;6.78;2.92;;;8.80;99.90;;;;;;6164772;23;20486;-83
2022/03/19 07:36:36;;;;;;;12.80;3.17;;;9.20;99.90;;;;;;6139690;23;20012;-84
2022/03/19 07:39:02;;;;;;;13.85;2.95;;;9.50;99.90;;;;;;6164314;23;20013;-84
2022/03/19 07:41:45;;;;;;;7.82;2.30;;;9.80;99.90;;;;;;6166739;23;20017;-83
2022/03/19 07:44:11;;;;;;;9.98;2.67;;;10.00;99.90;;;;;;6141467;23;20346;-83
2022/03/19 07:46:36;;;;;;;14.80;3.28;;;10.30;99.90;;;;;;6164711;23;20017;-83
2022/03/19 07:49:03;;;;;;;7.85;2.60;;;10.40;99.90;;;;;;6163538;23;20019;-83
2022/03/19 07:51:29;;;;;;;15.45;3.67;;;10.50;99.90;;;;;;6164249;23;20013;-83
2022/03/19 07:53:55;;;;;;;10.30;2.80;;;10.70;99.90;;;;;;6163585;23;20009;-81
2022/03/19 07:56:20;;;;;;;7.18;2.38;;;10.80;99.90;;;;;;6136758;23;20019;-84
2022/03/19 07:58:50;;;;;;;12.23;2.78;;;10.90;99.90;;;;;;6136394;23;20051;-82
2022/03/19 08:01:16;;;;;;;6.70;3.20;;;10.90;99.90;;;;;;6159465;23;20024;-83
2022/03/19 08:03:41;;;;;;;10.75;2.47;;;10.90;99.90;;;;;;6159252;23;20020;-81
2022/03/19 08:06:07;;;;;;;10.00;3.47;;;10.90;99.90;;;;;;6138043;23;20103;-83
2022/03/19 08:08:34;;;;;;;11.88;2.88;;;10.90;99.90;;;;;;6162837;23;20372;-82
2022/03/19 08:11:01;;;;;;;10.85;2.92;;;11.10;99.90;;;;;;6162923;23;20013;-83
2022/03/19 08:13:27;;;;;;;7.50;2.20;;;11.20;99.90;;;;;;6164447;23;20084;-82
2022/03/19 08:15:52;;;;;;;8.18;2.33;;;11.00;99.90;;;;;;6162300;23;20063;-79
2022/03/19 08:18:19;;;;;;;7.50;2.20;;;10.80;99.90;;;;;;6162266;23;20009;-80
2022/03/19 08:20:46;;;;;;;10.70;2.60;;;10.60;99.90;;;;;;6163822;23;20017;-81
2022/03/19 08:23:20;;;;;;;13.65;3.10;;;10.60;99.90;;;;;;6139476;23;20476;-78
2022/03/19 08:25:45;;;;;;;8.38;2.45;;;10.60;99.90;;;;;;6159816;23;20021;-76
2022/03/19 08:28:11;;;;;;;10.18;2.78;;;10.70;99.90;;;;;;6161845;23;20017;-82
2022/03/19 08:30:37;;;;;;;10.30;2.60;;;10.50;99.90;;;;;;6162130;23;20096;-81
2022/03/19 08:33:02;;;;;;;10.40;3.38;;;10.30;99.90;;;;;;6161180;23;20070;-81
2022/03/19 08:35:28;;;;;;;14.52;2.92;;;10.10;99.90;;;;;;6161098;23;20062;-80
2022/03/19 08:40:15;;;;;;;16.50;3.83;;;10.20;99.90;;;;;;6160586;23;20135;-79
2022/03/19 08:40:39;;;;;;;8.45;2.03;;;10.20;99.90;;;;;;6160207;23;20099;-80
2022/03/19 08:43:05;;;;;;;10.25;2.50;;;10.10;99.90;;;;;;6161092;23;20009;-80
2022/03/19 08:45:31;;;;;;;9.55;2.10;;;10.20;99.90;;;;;;6160266;23;20017;-80
2022/03/19 08:47:57;;;;;;;13.80;2.92;;;10.20;99.90;;;;;;6137088;23;20009;-80
2022/03/19 08:50:24;;;;;;;14.63;3.15;;;10.20;99.90;;;;;;6161079;23;20012;-80
2022/03/19 08:52:49;;;;;;;9.50;3.25;;;10.30;99.90;;;;;;6160841;23;20362;-80
2022/03/19 08:55:15;;;;;;;15.93;2.78;;;10.40;99.90;;;;;;6136706;23;20013;-80
2022/03/19 08:57:40;;;;;;;9.02;2.10;;;10.50;99.90;;;;;;6162796;23;20049;-80
2022/03/19 09:00:07;;;;;;;7.72;2.30;;;10.60;99.90;;;;;;6132235;23;20020;-79
2022/03/19 09:02:34;;;;;;;8.48;2.80;;;10.60;99.90;;;;;;6131892;23;20009;-80
2022/03/19 09:05:00;;;;;;;11.63;2.47;;;10.70;99.90;;;;;;6158646;23;20017;-83
2022/03/19 09:07:25;;;;;;;11.80;2.70;;;11.00;99.90;;;;;;6133466;23;20062;-80
2022/03/19 09:09:54;;;;;;;10.32;2.55;;;11.10;99.90;;;;;;6132597;23;20097;-80
2022/03/19 09:12:25;;;;;;;9.13;2.45;;;11.20;99.90;;;;;;6131541;23;20013;-79
2022/03/19 09:14:54;;;;;;;12.18;2.05;;;11.00;99.90;;;;;;6155738;23;20097;-82
2022/03/19 09:17:44;;;;;;;8.77;1.95;;;11.10;99.90;;;;;;6192872;23;20019;-82
2022/03/19 09:20:39;;;;;;;6.97;1.80;;;11.30;99.90;;;;;;6216010;23;20071;-82
2022/03/19 09:23:05;;;;;;;9.27;1.90;;;11.60;99.90;;;;;;6216378;23;20019;-81
2022/03/19 09:25:33;;;;;;;6.95;2.20;;;11.80;99.90;;;;;;6212216;23;20021;-83
2022/03/19 09:27:59;;;;;;;8.27;2.58;;;11.90;99.90;;;;;;6188514;23;20013;-81
2022/03/19 09:30:24;;;;;;;6.90;2.10;;;12.00;99.90;;;;;;6188558;23;20036;-81
2022/03/19 09:32:50;;;;;;;7.72;1.77;;;12.00;99.90;;;;;;6187995;23;20013;-83
2022/03/19 09:35:16;;;;;;;10.52;2.40;;;12.20;99.90;;;;;;6191728;23;20346;-83
2022/03/19 09:37:41;;;;;;;8.68;2.10;;;12.50;99.90;;;;;;6193700;23;20013;-82
2022/03/19 09:40:07;;;;;;;6.68;2.28;;;12.80;99.90;;;;;;6191108;23;20042;-80
2022/03/19 09:42:33;;;;;;;7.30;2.42;;;12.90;99.90;;;;;;6188892;23;20015;-81
2022/03/19 09:44:59;;;;;;;5.72;2.33;;;13.10;99.90;;;;;;6164949;23;20096;-81
2022/03/19 09:47:26;;;;;;;7.63;1.80;;;13.30;99.90;;;;;;6189704;23;20028;-81
2022/03/19 09:49:52;;;;;;;10.07;2.08;;;13.40;99.90;;;;;;6192992;23;20044;-80
2022/03/19 09:52:20;;;;;;;8.88;1.55;;;13.60;97.60;;;;;;6191159;23;20438;-83
2022/03/19 09:54:46;;;;;;;7.90;1.95;;;13.90;98.30;;;;;;6190273;23;20040;-82
2022/03/19 09:57:12;;;;;;;6.38;1.77;;;14.10;97.70;;;;;;6164505;23;20021;-82
2022/03/19 09:59:38;;;;;;;11.13;2.60;;;14.20;96.70;;;;;;6183769;23;20492;-79
2022/03/19 10:02:10;;;;;;;5.97;1.95;;;14.20;96.60;;;;;;6185297;23;20020;-83
2022/03/19 10:04:37;;;;;;;;;;;14.50;91.30;;;;;;6189458;23;20013;-84
2022/03/19 10:09:48;;;;;;;10.63;7.28;;;14.40;94.70;;;;;;6184826;23;20044;-78
2022/03/19 10:12:20;;;;;;;8.63;1.92;;;14.30;93.60;;;;;;6158851;23;20339;-80
2022/03/19 10:14:51;;;;;;;;;;;14.20;83.20;;;;;;6191304;23;20013;-80
2022/03/19 10:17:30;;;;;;;8.30;2.28;;;14.30;58.20;;;;;;6160434;23;19920;-80
2022/03/19 10:20:09;;;;;;;6.85;1.80;;;14.20;66.80;;;;;;6186585;23;20013;-79
2022/03/19 10:22:38;;;;;;;8.43;1.52;;;13.90;92.30;;;;;;6185520;23;20020;-80
2022/03/19 10:25:07;;;;;;;19.95;4.43;;;13.80;94.60;;;;;;6186361;23;20060;-80
2022/03/19 10:27:35;;;;;;;4.95;1.52;;;13.50;94.30;;;;;;6186545;23;20087;-77
2022/03/19 10:30:08;;;;;;;7.65;2.30;;;13.30;83.70;;;;;;6159290;23;20051;-80
2022/03/19 10:32:35;;;;;;;47.15;10.20;;;13.00;90.60;;;;;;6183646;23;20023;-83
2022/03/19 10:35:01;;;;;;;3.63;1.65;;;12.80;96.90;;;;;;6184494;23;20009;-81
2022/03/19 10:37:53;;;;;;;5.15;1.60;;;12.70;96.90;;;;;;6182618;23;20040;-80
2022/03/19 10:40:19;;;;;;;5.65;2.10;;;12.60;88.90;;;;;;6177859;23;20087;-85
2022/03/19 10:42:45;;;;;;;14.38;2.80;;;12.50;96.50;;;;;;6185169;23;20040;-84
2022/03/19 10:45:19;;;;;;;6.95;2.10;;;12.40;97.40;;;;;;6182750;23;20088;-85
2022/03/19 10:47:46;;;;;;;6.25;1.77;;;12.40;96.10;;;;;;6157679;23;20017;-85
2022/03/19 10:50:18;;;;;;;5.90;2.08;;;12.40;96.40;;;;;;6183830;23;20013;-83
2022/03/19 10:52:46;;;;;;;6.60;1.77;;;12.30;95.30;;;;;;6182490;23;20019;-86
2022/03/19 10:55:11;;;;;;;22.40;3.72;;;12.40;96.10;;;;;;6182709;23;20009;-87
2022/03/19 10:57:37;;;;;;;9.18;1.88;;;12.60;95.80;;;;;;6162243;23;20013;-84
2022/03/19 11:00:04;;;;;;;5.03;1.42;;;12.70;92.70;;;;;;6164093;23;20446;-85
2022/03/19 11:02:31;;;;;;;6.10;1.58;;;12.70;94.30;;;;;;6188132;23;20017;-83
2022/03/19 11:05:01;;;;;;;6.38;1.90;;;12.70;93.10;;;;;;6187184;23;20009;-85
2022/03/19 11:07:30;;;;;;;6.88;1.30;;;12.70;83.90;;;;;;6187752;23;20013;-85
2022/03/19 11:09:57;;;;;;;2.65;0.98;;;12.70;92.40;;;;;;6188504;23;20008;-80
2022/03/19 11:12:27;;;;;;;6.68;1.73;;;12.70;88.10;;;;;;6189977;23;20017;-83
2022/03/19 11:14:56;;;;;;;6.57;1.70;;;12.60;67.30;;;;;;6189501;23;20466;-84
2022/03/19 11:17:32;;;;;;;6.72;1.38;;;12.40;77.70;;;;;;6187169;23;20362;-84
2022/03/19 11:20:02;;;;;;;5.80;1.70;;;12.50;62.90;;;;;;6187712;23;20024;-84
2022/03/19 11:22:30;;;;;;;3.28;1.15;;;12.70;83.10;;;;;;6185859;23;20013;-84
2022/03/19 11:25:13;;;;;;;9.25;3.20;;;12.80;62.30;;;;;;6162502;23;20013;-84
2022/03/19 11:27:41;;;;;;;10.25;3.10;;;12.90;59.80;;;;;;6186631;23;20013;-85
2022/03/19 11:30:16;;;;;;;5.90;2.55;;;12.90;75.70;;;;;;6183523;23;20016;-86
2022/03/19 11:33:09;;;;;;;5.88;2.50;;;12.90;74.20;;;;;;6184592;23;20014;-84
2022/03/19 11:36:02;;;;;;;4.07;0.98;;;13.00;65.10;;;;;;6183879;23;20059;-84
2022/03/19 11:38:30;;;;;;;7.88;2.00;;;13.00;62.80;;;;;;6183376;23;20020;-83
2022/03/19 11:40:57;;;;;;;4.35;0.90;;;13.10;79.70;;;;;;6184528;23;20123;-84
2022/03/19 11:43:35;;;;;;;5.22;1.25;;;13.20;58.30;;;;;;6185050;23;20005;-84
2022/03/19 11:46:06;;;;;;;7.93;1.48;;;13.20;62.70;;;;;;6184922;23;20017;-82
2022/03/19 11:48:34;;;;;;;3.90;1.48;;;13.20;62.30;;;;;;6186655;23;20024;-83
2022/03/19 11:51:31;;;;;;;3.80;1.17;;;13.20;72.30;;;;;;6184631;23;20020;-80
2022/03/19 11:54:02;;;;;;;5.65;1.70;;;13.30;63.60;;;;;;6174988;23;20040;-82
2022/03/19 11:56:43;;;;;;;12.38;2.72;;;13.50;59.40;;;;;;6159915;23;20338;-84
2022/03/19 11:59:24;;;;;;;5.05;1.55;;;13.50;58.00;;;;;;6160641;23;20021;-81
2022/03/19 12:01:59;;;;;;;5.47;1.35;;;13.40;57.70;;;;;;6183961;23;20069;-84
2022/03/19 12:04:39;;;;;;;4.90;1.58;;;13.40;66.40;;;;;;6159084;23;20512;-83
2022/03/19 12:07:05;;;;;;;9.18;1.65;;;13.40;64.90;;;;;;6183811;23;20013;-84
2022/03/19 12:09:33;;;;;;;6.45;1.88;;;13.30;66.30;;;;;;6185429;23;20016;-82
2022/03/19 12:12:24;;;;;;;4.15;1.27;;;13.30;57.90;;;;;;6160283;23;20382;-84
2022/03/19 12:14:49;;;;;;;4.47;1.92;;;13.40;57.20;;;;;;6185745;23;20091;-83
2022/03/19 12:17:19;;;;;;;3.60;1.08;;;13.40;65.90;;;;;;6159099;23;20103;-83
2022/03/19 12:20:03;;;;;;;2.47;0.90;;;13.60;68.90;;;;;;6184574;23;20064;-82
2022/03/19 12:22:36;;;;;;;3.53;1.02;;;13.70;54.20;;;;;;6185160;23;20390;-83
2022/03/19 12:25:25;;;;;;;3.38;1.23;;;13.70;66.40;;;;;;6158574;23;20020;-84
2022/03/19 12:27:52;;;;;;;4.13;1.30;;;13.60;53.90;;;;;;6159412;23;20095;-83
2022/03/19 12:30:18;;;;;;;4.13;1.08;;;13.50;60.30;;;;;;6160203;23;20013;-82
2022/03/19 12:32:55;;;;;;;4.43;1.55;;;13.40;62.10;;;;;;6184088;23;20012;-82
2022/03/19 12:35:43;;;;;;;5.07;1.30;;;13.40;58.50;;;;;;6183325;23;20009;-83
2022/03/19 12:38:09;;;;;;;6.28;1.77;;;13.50;56.40;;;;;;6159218;23;20345;-84
2022/03/19 12:43:22;;;;;;;3.85;1.05;;;13.60;58.80;;;;;;6185913;23;20094;-84
2022/03/19 12:45:52;;;;;;;4.13;1.38;;;13.50;60.90;;;;;;6160718;23;20017;-86
2022/03/19 12:48:21;;;;;;;2.00;1.10;;;13.40;56.60;;;;;;6185332;23;20005;-84
2022/03/19 12:50:48;;;;;;;3.38;1.05;;;13.30;56.60;;;;;;6184476;23;20020;-82
2022/03/19 12:53:14;;;;;;;5.25;1.50;;;13.20;58.40;;;;;;6161113;23;20092;-83
2022/03/19 12:55:40;;;;;;;4.65;1.40;;;13.10;59.10;;;;;;6185076;23;20024;-83
2022/03/19 12:58:05;;;;;;;2.67;1.35;;;13.10;58.90;;;;;;6185571;23;20017;-85
2022/03/19 13:00:31;;;;;;;2.67;1.45;;;13.30;59.50;;;;;;6184914;23;20453;-84
2022/03/19 13:02:57;;;;;;;6.15;2.13;;;13.40;58.90;;;;;;6160109;23;20018;-81
2022/03/19 13:05:23;;;;;;;4.63;2.00;;;13.40;56.30;;;;;;6186000;23;20425;-82
2022/03/19 13:08:07;;;;;;;2.13;1.10;;;13.30;57.40;;;;;;6186794;23;20013;-84